Time,TemperatureF,DewpointF,PressureIn,WindDirection,WindDirectionDegrees,WindSpeedMPH,WindSpeedGustMPH,Humidity,HourlyPrecipIn,Conditions,Clouds,dailyrainin,SoftwareType,DateUTC
2013-05-31 00:03:00,67.7,61.0,30.16,South,183,0.0,0.0,78,0.00,,,0.00,weatherlink.com 1.10,2013-05-31 04:03:00,
2013-05-31 00:18:00,67.1,61.0,30.16,South,183,0.0,0.0,81,0.00,,,0.00,weatherlink.com 1.10,2013-05-31 04:18:00,
2013-05-31 00:33:00,66.7,61.0,30.17,South,183,0.0,1.0,82,0.00,,,0.00,weatherlink.com 1.10,2013-05-31 04:33:00,
2013-05-31 00:48:00,66.5,61.0,30.16,South,183,0.0,1.0,82,0.00,,,0.00,weatherlink.com 1.10,2013-05-31 04:48:00,
2013-05-31 01:03:00,66.4,60.0,30.16,South,183,0.0,0.0,81,0.00,,,0.00,weatherlink.com 1.10,2013-05-31 05:03:00,
2013-05-31 01:18:00,66.6,61.0,30.17,South,183,0.0,1.0,82,0.00,,,0.00,weatherlink.com 1.10,2013-05-31 05:18:00,
2013-05-31 01:33:00,66.8,61.0,30.16,South,183,0.0,1.0,81,0.00,,,0.00,weatherlink.com 1.10,2013-05-31 05:33:00,
2013-05-31 01:48:00,67.1,61.0,30.16,SSW,202,0.0,1.0,80,0.00,,,0.00,weatherlink.com 1.10,2013-05-31 05:48:00,
2013-05-31 02:03:00,67.1,61.0,30.16,SSW,202,0.0,1.0,80,0.00,,,0.00,weatherlink.com 1.10,2013-05-31 06:03:00,
2013-05-31 02:18:00,67.7,61.0,30.16,ESE,115,0.0,2.0,79,0.00,,,0.00,weatherlink.com 1.10,2013-05-31 06:18:00,
2013-05-31 02:33:00,68.0,61.0,30.16,South,180,0.0,3.0,78,0.00,,,0.00,weatherlink.com 1.10,2013-05-31 06:33:00,
2013-05-31 02:48:00,67.8,61.0,30.16,SE,128,1.0,2.0,79,0.00,,,0.00,weatherlink.com 1.10,2013-05-31 06:48:00,
2013-05-31 03:03:00,68.3,62.0,30.16,SSW,207,2.0,6.0,79,0.00,,,0.00,weatherlink.com 1.10,2013-05-31 07:03:00,
2013-05-31 03:18:00,68.5,62.0,30.16,SSE,165,0.0,5.0,79,0.00,,,0.00,weatherlink.com 1.10,2013-05-31 07:18:00,
2013-05-31 03:33:00,68.1,62.0,30.16,South,186,0.0,3.0,81,0.00,,,0.00,weatherlink.com 1.10,2013-05-31 07:33:00,
2013-05-31 03:48:00,68.0,62.0,30.17,WSW,238,0.0,3.0,82,0.00,,,0.00,weatherlink.com 1.10,2013-05-31 07:48:00,
2013-05-31 04:03:00,67.8,63.0,30.16,WSW,242,1.0,4.0,83,0.00,,,0.00,weatherlink.com 1.10,2013-05-31 08:03:00,
2013-05-31 04:18:00,67.6,62.0,30.16,SSW,196,1.0,3.0,83,0.00,,,0.00,weatherlink.com 1.10,2013-05-31 08:18:00,
2013-05-31 04:34:00,67.5,63.0,30.16,ESE,123,1.0,3.0,84,0.00,,,0.00,weatherlink.com 1.10,2013-05-31 08:34:00,
2013-05-31 04:49:00,67.3,62.0,30.16,SSE,160,2.0,2.0,84,0.00,,,0.00,weatherlink.com 1.10,2013-05-31 08:49:00,
2013-05-31 05:04:00,67.1,63.0,30.16,SE,126,1.0,4.0,85,0.00,,,0.00,weatherlink.com 1.10,2013-05-31 09:04:00,
2013-05-31 05:19:00,66.7,62.0,30.16,SE,145,0.0,2.0,85,0.00,,,0.00,weatherlink.com 1.10,2013-05-31 09:19:00,
2013-05-31 05:34:00,66.2,62.0,30.17,SE,145,0.0,1.0,86,0.00,,,0.00,weatherlink.com 1.10,2013-05-31 09:34:00,
2013-05-31 05:49:00,65.8,62.0,30.17,SE,145,0.0,1.0,87,0.00,,,0.00,weatherlink.com 1.10,2013-05-31 09:49:00,
2013-05-31 06:04:00,65.2,62.0,30.17,SE,145,0.0,0.0,88,0.00,,,0.00,weatherlink.com 1.10,2013-05-31 10:04:00,
2013-05-31 06:19:00,64.6,61.0,30.17,SE,145,0.0,0.0,89,0.00,,,0.00,weatherlink.com 1.10,2013-05-31 10:19:00,
2013-05-31 06:34:00,64.3,61.0,30.17,SE,145,0.0,0.0,90,0.00,,,0.00,weatherlink.com 1.10,2013-05-31 10:34:00,
2013-05-31 06:49:00,64.0,61.0,30.17,SE,145,0.0,0.0,91,0.00,,,0.00,weatherlink.com 1.10,2013-05-31 10:49:00,
2013-05-31 07:04:00,63.9,62.0,30.17,SE,145,0.0,0.0,92,0.00,,,0.00,weatherlink.com 1.10,2013-05-31 11:04:00,
2013-05-31 07:19:00,64.5,63.0,30.17,SE,146,0.0,1.0,93,0.00,,,0.00,weatherlink.com 1.10,2013-05-31 11:19:00,
2013-05-31 07:34:00,66.0,64.0,30.17,SSE,158,0.0,2.0,93,0.00,,,0.00,weatherlink.com 1.10,2013-05-31 11:34:00,
2013-05-31 07:49:00,68.2,65.0,30.17,SSW,201,1.0,4.0,88,0.00,,,0.00,weatherlink.com 1.10,2013-05-31 11:49:00,
2013-05-31 08:04:00,69.6,65.0,30.18,SSE,168,1.0,4.0,86,0.00,,,0.00,weatherlink.com 1.10,2013-05-31 12:04:00,
2013-05-31 08:19:00,71.3,66.0,30.18,SW,220,1.0,4.0,83,0.00,,,0.00,weatherlink.com 1.10,2013-05-31 12:19:00,
2013-05-31 08:34:00,72.7,66.0,30.18,NE,39,2.0,5.0,80,0.00,,,0.00,weatherlink.com 1.10,2013-05-31 12:34:00,
2013-05-31 08:49:00,73.5,66.0,30.18,SSE,153,3.0,6.0,78,0.00,,,0.00,weatherlink.com 1.10,2013-05-31 12:49:00,
2013-05-31 09:04:00,74.0,66.0,30.18,SE,142,1.0,6.0,77,0.00,,,0.00,weatherlink.com 1.10,2013-05-31 13:04:00,
2013-05-31 09:19:00,75.4,67.0,30.18,SSE,150,3.0,4.0,76,0.00,,,0.00,weatherlink.com 1.10,2013-05-31 13:19:00,
2013-05-31 09:34:00,76.7,67.0,30.18,South,181,1.0,4.0,73,0.00,,,0.00,weatherlink.com 1.10,2013-05-31 13:34:00,
2013-05-31 09:49:00,77.6,67.0,30.17,SW,236,1.0,5.0,70,0.00,,,0.00,weatherlink.com 1.10,2013-05-31 13:49:00,
2013-05-31 10:04:00,79.1,68.0,30.17,SSE,150,0.0,3.0,69,0.00,,,0.00,weatherlink.com 1.10,2013-05-31 14:04:00,
2013-05-31 10:19:00,79.6,68.0,30.17,South,169,3.0,6.0,67,0.00,,,0.00,weatherlink.com 1.10,2013-05-31 14:19:00,
2013-05-31 10:34:00,82.1,70.0,30.17,SSE,164,6.0,8.0,66,0.00,,,0.00,weatherlink.com 1.10,2013-05-31 14:34:00,
2013-05-31 10:49:00,82.1,69.0,30.17,ESE,121,4.0,6.0,64,0.00,,,0.00,weatherlink.com 1.10,2013-05-31 14:49:00,
2013-05-31 11:04:00,81.6,68.0,30.17,NNW,331,3.0,7.0,64,0.00,,,0.00,weatherlink.com 1.10,2013-05-31 15:04:00,
2013-05-31 11:19:00,82.1,68.0,30.18,SW,218,2.0,9.0,62,0.00,,,0.00,weatherlink.com 1.10,2013-05-31 15:19:00,
2013-05-31 11:34:00,83.3,67.0,30.18,ESE,119,1.0,11.0,58,0.00,,,0.00,weatherlink.com 1.10,2013-05-31 15:34:00,
2013-05-31 11:50:00,84.6,68.0,30.17,WNW,284,1.0,6.0,57,0.00,,,0.00,weatherlink.com 1.10,2013-05-31 15:50:00,
2013-05-31 12:05:00,84.8,67.0,30.17,SSW,201,3.0,8.0,56,0.00,,,0.00,weatherlink.com 1.10,2013-05-31 16:05:00,
2013-05-31 12:20:00,84.3,66.0,30.17,SE,135,5.0,7.0,55,0.00,,,0.00,weatherlink.com 1.10,2013-05-31 16:20:00,
2013-05-31 12:35:00,85.7,68.0,30.16,South,172,2.0,7.0,56,0.00,,,0.00,weatherlink.com 1.10,2013-05-31 16:35:00,
2013-05-31 12:50:00,85.4,66.0,30.15,SW,224,5.0,7.0,53,0.00,,,0.00,weatherlink.com 1.10,2013-05-31 16:50:00,
2013-05-31 13:05:00,86.3,67.0,30.15,SSE,159,5.0,6.0,52,0.00,,,0.00,weatherlink.com 1.10,2013-05-31 17:05:00,
2013-05-31 13:20:00,85.1,65.0,30.14,ESE,112,2.0,6.0,52,0.00,,,0.00,weatherlink.com 1.10,2013-05-31 17:20:00,
2013-05-31 13:35:00,85.5,66.0,30.14,SE,134,5.0,6.0,53,0.00,,,0.00,weatherlink.com 1.10,2013-05-31 17:35:00,
2013-05-31 13:50:00,86.6,68.0,30.14,SSE,165,3.0,7.0,54,0.00,,,0.00,weatherlink.com 1.10,2013-05-31 17:50:00,
2013-05-31 14:05:00,87.8,66.0,30.13,NNW,333,0.0,11.0,49,0.00,,,0.00,weatherlink.com 1.10,2013-05-31 18:05:00,
2013-05-31 14:20:00,87.4,67.0,30.13,SSE,150,6.0,6.0,50,0.00,,,0.00,weatherlink.com 1.10,2013-05-31 18:20:00,
2013-05-31 14:35:00,86.4,67.0,30.12,WSW,258,1.0,7.0,53,0.00,,,0.00,weatherlink.com 1.10,2013-05-31 18:35:00,
2013-05-31 14:50:00,87.0,67.0,30.12,SE,133,3.0,6.0,52,0.00,,,0.00,weatherlink.com 1.10,2013-05-31 18:50:00,
2013-05-31 15:05:00,87.8,67.0,30.11,ESE,119,4.0,7.0,50,0.00,,,0.00,weatherlink.com 1.10,2013-05-31 19:05:00,
2013-05-31 15:20:00,87.0,67.0,30.11,SSE,165,8.0,9.0,52,0.00,,,0.00,weatherlink.com 1.10,2013-05-31 19:20:00,
2013-05-31 15:35:00,87.9,66.0,30.10,WNW,290,2.0,7.0,49,0.00,,,0.00,weatherlink.com 1.10,2013-05-31 19:35:00,
2013-05-31 15:50:00,88.3,68.0,30.10,SSW,199,1.0,7.0,52,0.00,,,0.00,weatherlink.com 1.10,2013-05-31 19:50:00,
2013-05-31 16:05:00,87.1,66.0,30.09,NW,315,2.0,7.0,50,0.00,,,0.00,weatherlink.com 1.10,2013-05-31 20:05:00,
2013-05-31 16:20:00,87.7,67.0,30.09,West,264,3.0,8.0,50,0.00,,,0.00,weatherlink.com 1.10,2013-05-31 20:20:00,
2013-05-31 16:35:00,87.1,66.0,30.08,SE,144,4.0,6.0,49,0.00,,,0.00,weatherlink.com 1.10,2013-05-31 20:35:00,
2013-05-31 16:50:00,86.3,66.0,30.08,SW,221,2.0,7.0,51,0.00,,,0.00,weatherlink.com 1.10,2013-05-31 20:50:00,
2013-05-31 17:05:00,85.8,67.0,30.08,NNE,19,2.0,6.0,53,0.00,,,0.00,weatherlink.com 1.10,2013-05-31 21:05:00,
2013-05-31 17:20:00,86.7,67.0,30.07,SSW,199,2.0,7.0,52,0.00,,,0.00,weatherlink.com 1.10,2013-05-31 21:20:00,
2013-05-31 17:35:00,84.7,65.0,30.07,SW,229,1.0,8.0,51,0.00,,,0.00,weatherlink.com 1.10,2013-05-31 21:35:00,
2013-05-31 17:50:00,84.9,65.0,30.07,SSE,148,2.0,6.0,52,0.00,,,0.00,weatherlink.com 1.10,2013-05-31 21:50:00,
2013-05-31 18:05:00,85.7,66.0,30.07,ESE,107,1.0,6.0,52,0.00,,,0.00,weatherlink.com 1.10,2013-05-31 22:05:00,
2013-05-31 18:20:00,85.2,64.0,30.07,South,188,3.0,9.0,50,0.00,,,0.00,weatherlink.com 1.10,2013-05-31 22:20:00,
2013-05-31 18:35:00,83.7,64.0,30.06,South,175,2.0,8.0,51,0.00,,,0.00,weatherlink.com 1.10,2013-05-31 22:35:00,
2013-05-31 18:50:00,83.0,63.0,30.06,SE,126,1.0,8.0,51,0.00,,,0.00,weatherlink.com 1.10,2013-05-31 22:50:00,
2013-05-31 19:05:00,82.4,64.0,30.06,SSW,202,2.0,7.0,54,0.00,,,0.00,weatherlink.com 1.10,2013-05-31 23:05:00,
2013-05-31 19:20:00,81.9,65.0,30.07,SE,126,0.0,6.0,56,0.00,,,0.00,weatherlink.com 1.10,2013-05-31 23:20:00,
2013-05-31 19:35:00,81.4,64.0,30.07,SSE,148,0.0,3.0,56,0.00,,,0.00,weatherlink.com 1.10,2013-05-31 23:35:00,
2013-05-31 19:50:00,80.6,64.0,30.07,SSW,213,0.0,8.0,58,0.00,,,0.00,weatherlink.com 1.10,2013-05-31 23:50:00,
2013-05-31 20:05:00,79.9,64.0,30.07,ESE,123,0.0,2.0,59,0.00,,,0.00,weatherlink.com 1.10,2013-06-01 00:05:00,
2013-05-31 20:20:00,78.9,65.0,30.07,SSE,167,0.0,1.0,62,0.00,,,0.00,weatherlink.com 1.10,2013-06-01 00:20:00,
2013-05-31 20:35:00,77.7,65.0,30.07,South,173,0.0,1.0,64,0.00,,,0.00,weatherlink.com 1.10,2013-06-01 00:35:00,
2013-05-31 20:50:00,76.5,64.0,30.07,SSW,204,0.0,3.0,66,0.00,,,0.00,weatherlink.com 1.10,2013-06-01 00:50:00,
2013-05-31 21:05:00,75.7,64.0,30.07,SE,126,0.0,1.0,68,0.00,,,0.00,weatherlink.com 1.10,2013-06-01 01:05:00,
2013-05-31 21:20:00,74.9,65.0,30.07,SE,126,0.0,1.0,70,0.00,,,0.00,weatherlink.com 1.10,2013-06-01 01:20:00,
2013-05-31 21:35:00,74.2,65.0,30.08,SE,126,0.0,1.0,72,0.00,,,0.00,weatherlink.com 1.10,2013-06-01 01:35:00,
2013-05-31 21:50:00,73.7,65.0,30.08,SSE,147,0.0,2.0,73,0.00,,,0.00,weatherlink.com 1.10,2013-06-01 01:50:00,
2013-05-31 22:05:00,72.9,65.0,30.08,SSE,147,0.0,1.0,75,0.00,,,0.00,weatherlink.com 1.10,2013-06-01 02:05:00,
2013-05-31 22:20:00,72.2,64.0,30.09,SSE,147,0.0,1.0,75,0.00,,,0.00,weatherlink.com 1.10,2013-06-01 02:20:00,
2013-05-31 22:35:00,71.9,64.0,30.08,SSE,154,0.0,1.0,76,0.00,,,0.00,weatherlink.com 1.10,2013-06-01 02:35:00,
2013-05-31 22:50:00,71.7,64.0,30.08,SSE,157,1.0,2.0,76,0.00,,,0.00,weatherlink.com 1.10,2013-06-01 02:50:00,
2013-05-31 23:05:00,71.9,64.0,30.08,SSE,163,1.0,3.0,76,0.00,,,0.00,weatherlink.com 1.10,2013-06-01 03:05:00,
2013-05-31 23:20:00,71.8,64.0,30.08,South,176,0.0,4.0,77,0.00,,,0.00,weatherlink.com 1.10,2013-06-01 03:20:00,
2013-05-31 23:35:00,71.5,64.0,30.08,ENE,65,0.0,2.0,77,0.00,,,0.00,weatherlink.com 1.10,2013-06-01 03:35:00,
2013-05-31 23:50:00,71.1,64.0,30.07,ESE,118,1.0,2.0,79,0.00,,,0.00,weatherlink.com 1.10,2013-06-01 03:50:00,